Time;durP1;ratioP1;P1;durP2;ratioP2;P2;SDS_P1;SDS_P2;PMS_P1;PMS_P2;Temp;Humidity;BMP_temperature;BMP_pressure;BME280_temperature;BME280_humidity;BME280_pressure;Samples;Min_cycle;Max_cycle;Signal;HPM_P1;HPM_P2
2022/11/01 00:01:44;;;;;;;10.13;2.08;;;;;;;9.61;100.00;100207.47;4779395;29;20034;-75
2022/11/01 00:04:10;;;;;;;9.95;1.70;;;;;;;9.57;100.00;100214.72;4794397;29;20399;-76
2022/11/01 00:06:35;;;;;;;15.57;2.00;;;;;;;9.56;100.00;100217.78;4779869;29;20038;-76
2022/11/01 00:09:01;;;;;;;13.40;2.35;;;;;;;9.52;100.00;100223.06;4792030;29;20030;-76
2022/11/01 00:11:26;;;;;;;11.35;1.90;;;;;;;9.51;100.00;100228.94;4775644;29;20049;-75
2022/11/01 00:13:52;;;;;;;10.65;1.92;;;;;;;9.47;100.00;100227.84;4809668;29;20034;-76
2022/11/01 00:16:18;;;;;;;15.85;2.33;;;;;;;9.42;100.00;100239.84;4794630;29;20511;-75
2022/11/01 00:18:43;;;;;;;10.82;1.70;;;;;;;9.38;100.00;100238.75;4794784;29;20062;-75
2022/11/01 00:21:09;;;;;;;12.55;1.80;;;;;;;9.38;100.00;100245.13;4794373;29;20030;-76
2022/11/01 00:23:36;;;;;;;8.23;1.73;;;;;;;9.35;100.00;100244.88;4782144;29;20070;-75
2022/11/01 00:26:01;;;;;;;10.90;1.42;;;;;;;9.31;100.00;100247.44;4809938;29;20057;-75
2022/11/01 00:28:27;;;;;;;10.32;1.83;;;;;;;9.29;100.00;100254.38;4794732;29;20027;-75
2022/11/01 00:30:53;;;;;;;14.90;1.77;;;;;;;9.26;100.00;100246.66;4794775;29;20030;-75
2022/11/01 00:33:19;;;;;;;14.15;2.03;;;;;;;9.26;100.00;100252.19;4764420;29;20308;-75
2022/11/01 00:35:45;;;;;;;12.05;1.77;;;;;;;9.22;100.00;100259.41;4803914;29;20046;-75
2022/11/01 00:38:12;;;;;;;8.68;1.30;;;;;;;9.20;100.00;100250.59;4795076;29;20030;-75
2022/11/01 00:40:38;;;;;;;9.55;1.70;;;;;;;9.17;100.00;100255.59;4779741;29;20034;-75
2022/11/01 00:43:03;;;;;;;11.57;1.95;;;;;;;9.13;100.00;100262.81;4793036;29;20045;-75
2022/11/01 00:45:29;;;;;;;11.05;1.52;;;;;;;9.11;100.00;100255.91;4794701;29;20095;-75
2022/11/01 00:47:54;;;;;;;13.70;2.00;;;;;;;9.05;100.00;100263.44;4795808;29;20149;-75
2022/11/01 00:50:20;;;;;;;9.88;1.70;;;;;;;9.04;100.00;100269.28;4774381;29;20037;-75
2022/11/01 00:52:45;;;;;;;11.80;2.28;;;;;;;9.00;100.00;100273.72;4827913;29;20042;-75
2022/11/01 00:55:11;;;;;;;13.68;1.85;;;;;;;9.00;100.00;100276.50;4812758;29;20121;-75
2022/11/01 00:57:36;;;;;;;12.25;1.63;;;;;;;8.99;100.00;100274.84;4812639;29;20492;-75
2022/11/01 01:00:03;;;;;;;14.05;1.88;;;;;;;8.96;100.00;100276.25;4812595;29;20038;-75
2022/11/01 01:02:28;;;;;;;15.57;2.45;;;;;;;8.96;100.00;100281.81;4797535;29;20042;-75
2022/11/01 01:04:54;;;;;;;9.93;1.80;;;;;;;8.95;100.00;100282.94;4785662;29;20506;-75
2022/11/01 01:07:19;;;;;;;11.48;2.10;;;;;;;8.93;100.00;100282.38;4815314;29;20094;-75
2022/11/01 01:09:45;;;;;;;22.67;2.42;;;;;;;8.88;100.00;100282.41;4847062;29;20101;-75
2022/11/01 01:12:10;;;;;;;13.27;1.95;;;;;;;8.85;100.00;100291.31;4846429;29;20030;-75
2022/11/01 01:14:36;;;;;;;17.65;2.20;;;;;;;8.87;100.00;100300.16;4827366;29;20034;-75
2022/11/01 01:17:01;;;;;;;11.05;1.85;;;;;;;8.86;100.00;100293.78;4812517;29;20038;-75
2022/11/01 01:19:28;;;;;;;13.20;2.00;;;;;;;8.84;100.00;100304.31;4830049;29;20030;-75
2022/11/01 01:21:53;;;;;;;16.55;2.65;;;;;;;8.84;100.00;100307.09;4796759;29;20037;-75
2022/11/01 01:24:19;;;;;;;14.30;2.13;;;;;;;8.80;100.00;100305.19;4829226;29;20034;-75
2022/11/01 01:26:44;;;;;;;16.58;2.22;;;;;;;8.81;100.00;100306.84;4830349;29;20390;-75
2022/11/01 01:29:10;;;;;;;14.38;2.33;;;;;;;8.79;100.00;100309.91;4828217;29;20035;-75
2022/11/01 01:31:35;;;;;;;11.77;1.65;;;;;;;8.75;100.00;100307.97;4815621;29;20041;-75
2022/11/01 01:34:01;;;;;;;11.13;1.63;;;;;;;8.73;100.00;100311.88;4792278;29;20487;-75
2022/11/01 01:36:26;;;;;;;13.77;2.28;;;;;;;8.71;100.00;100311.31;4814912;29;20064;-75
2022/11/01 01:38:52;;;;;;;16.95;2.10;;;;;;;8.70;100.00;100317.97;4800282;29;20045;-75
2022/11/01 01:44:40;;;;;;;15.80;2.17;;;;;;;8.64;100.00;100318.31;4827244;29;20073;-75
2022/11/01 01:47:07;;;;;;;17.02;2.53;;;;;;;8.63;100.00;100323.00;4830247;29;20548;-75
2022/11/01 01:49:32;;;;;;;12.48;1.83;;;;;;;8.61;100.00;100329.94;4792975;29;20144;-75
2022/11/01 01:51:57;;;;;;;18.88;2.38;;;;;;;8.58;100.00;100331.34;4815247;29;20034;-75
2022/11/01 01:54:23;;;;;;;17.58;2.42;;;;;;;8.57;100.00;100329.69;4802901;29;20556;-75
2022/11/01 01:56:48;;;;;;;10.07;1.58;;;;;;;8.62;100.00;100331.59;4814244;29;20050;-75
2022/11/01 01:59:14;;;;;;;12.68;1.77;;;;;;;8.57;100.00;100329.69;4799836;29;20091;-75
2022/11/01 02:01:39;;;;;;;16.13;2.17;;;;;;;8.58;100.00;100342.44;4813502;29;20038;-75
2022/11/01 02:04:08;;;;;;;7.93;1.98;;;;;;;8.55;100.00;100331.91;4814768;29;20383;-75
2022/11/01 02:06:33;;;;;;;16.02;2.50;;;;;;;8.51;100.00;100333.59;4785022;29;20026;-75
2022/11/01 02:09:00;;;;;;;15.13;1.90;;;;;;;8.49;100.00;100338.56;4799966;29;20034;-76
2022/11/01 02:11:25;;;;;;;14.20;2.00;;;;;;;8.50;100.00;100337.47;4784342;29;20074;-75
2022/11/01 02:13:51;;;;;;;19.25;2.25;;;;;;;8.48;100.00;100348.00;4814256;29;20049;-75
2022/11/01 02:16:35;;;;;;;14.90;2.40;;;;;;;8.46;100.00;100345.50;4784567;29;20034;-75
2022/11/01 02:19:28;;;;;;;17.48;2.65;;;;;;;8.43;100.00;100354.38;4829727;29;20444;-75
2022/11/01 02:22:13;;;;;;;;;;;;;;;8.40;100.00;100354.94;4814610;29;20049;-75
2022/11/01 02:25:09;;;;;;;17.95;2.33;;;;;;;8.42;100.00;100344.44;4845988;29;20498;-75
2022/11/01 02:27:50;;;;;;;15.05;1.95;;;;;;;8.37;100.00;100355.50;4829330;29;20037;-75
2022/11/01 02:30:17;;;;;;;14.65;2.10;;;;;;;8.38;100.00;100361.84;4846134;29;20062;-75
2022/11/01 02:32:53;;;;;;;21.35;2.75;;;;;;;8.34;100.00;100353.28;4829837;29;20041;-75
2022/11/01 02:35:39;;;;;;;17.85;3.10;;;;;;;8.36;100.00;100347.44;4790455;29;20022;-75
2022/11/01 02:38:21;;;;;;;14.50;2.42;;;;;;;8.34;100.00;100352.47;4819302;29;20450;-75
2022/11/01 02:41:02;;;;;;;14.90;2.47;;;;;;;8.30;100.00;100352.19;4800860;29;20069;-75
2022/11/01 02:43:37;;;;;;;18.95;2.17;;;;;;;8.26;100.00;100356.63;4801852;29;20034;-75
2022/11/01 02:46:59;;;;;;;21.58;2.72;;;;;;;8.26;100.00;100365.75;4818810;29;20045;-75
2022/11/01 02:48:48;;;;;;;11.00;1.77;;;;;;;8.24;100.00;100364.38;4828500;29;20137;-75
2022/11/01 02:51:14;;;;;;;14.23;2.10;;;;;;;8.25;100.00;100366.06;4823415;29;20034;-75
2022/11/01 02:53:39;;;;;;;13.10;1.98;;;;;;;8.19;100.00;100375.47;4783714;29;20038;-75
2022/11/01 02:56:08;;;;;;;14.52;2.45;;;;;;;8.19;100.00;100372.69;4799054;29;20053;-75
2022/11/01 02:58:34;;;;;;;13.65;1.75;;;;;;;8.22;100.00;100372.97;4811713;29;20536;-75
2022/11/01 03:00:59;;;;;;;15.02;2.55;;;;;;;8.20;100.00;100390.97;4813792;29;20037;-75
2022/11/01 03:03:31;;;;;;;11.20;2.17;;;;;;;8.17;100.00;100386.81;4813512;29;20046;-75
2022/11/01 03:06:01;;;;;;;16.47;2.67;;;;;;;8.15;100.00;100394.56;4814759;29;20069;-75
2022/11/01 03:08:29;;;;;;;19.50;2.08;;;;;;;8.15;100.00;100397.34;4845336;29;20749;-75
2022/11/01 03:11:10;;;;;;;11.20;2.65;;;;;;;8.17;100.00;100402.59;4798607;29;20522;-75
2022/11/01 03:13:53;;;;;;;20.17;3.10;;;;;;;8.16;100.00;100393.47;4828201;29;20094;-75
2022/11/01 03:16:35;;;;;;;16.80;2.70;;;;;;;8.16;100.00;100403.69;4844995;29;20038;-75
2022/11/01 03:19:03;;;;;;;14.45;1.75;;;;;;;8.16;100.00;100401.78;4828347;29;20038;-75
2022/11/01 03:21:31;;;;;;;11.77;2.35;;;;;;;8.16;100.00;100393.47;4828797;29;20038;-75
2022/11/01 03:24:22;;;;;;;12.98;2.58;;;;;;;8.12;100.00;100394.31;4798833;29;20361;-75
2022/11/01 03:26:51;;;;;;;17.05;2.92;;;;;;;8.12;100.00;100400.66;4813039;29;20038;-75
2022/11/01 03:29:17;;;;;;;17.83;2.55;;;;;;;8.13;100.00;100407.03;4783659;29;20036;-75
2022/11/01 03:31:42;;;;;;;14.50;2.47;;;;;;;8.13;100.00;100407.84;4813341;29;20483;-75
2022/11/01 03:34:11;;;;;;;10.88;2.08;;;;;;;8.13;100.00;100401.50;4795423;29;20038;-75
2022/11/01 03:36:39;;;;;;;15.18;2.22;;;;;;;8.12;100.00;100403.44;4777229;29;20034;-75
2022/11/01 03:39:10;;;;;;;9.70;2.40;;;;;;;8.11;100.00;100404.56;4798357;29;20521;-75
2022/11/01 03:41:38;;;;;;;17.52;2.72;;;;;;;8.12;100.00;100406.19;4781849;29;20063;-75
2022/11/01 03:44:03;;;;;;;18.23;2.42;;;;;;;8.06;100.00;100401.78;4826496;29;20037;-75
2022/11/01 03:46:29;;;;;;;18.98;3.10;;;;;;;8.10;100.00;100400.09;4798395;29;20030;-75
2022/11/01 03:48:54;;;;;;;16.67;2.65;;;;;;;8.09;100.00;100404.00;4814252;29;20049;-75
2022/11/01 03:51:20;;;;;;;17.92;2.63;;;;;;;8.06;100.00;100402.63;4783362;29;20041;-75
2022/11/01 03:53:45;;;;;;;17.63;2.53;;;;;;;8.12;100.00;100397.06;4828115;29;20022;-75
2022/11/01 03:56:10;;;;;;;15.32;2.28;;;;;;;8.08;100.00;100399.59;4812891;29;20583;-75
2022/11/01 03:58:45;;;;;;;20.55;3.08;;;;;;;8.09;100.00;100401.22;4844518;29;20034;-75
2022/11/01 04:01:12;;;;;;;15.88;2.90;;;;;;;8.09;100.00;100401.22;4815621;29;20041;-75
2022/11/01 04:03:38;;;;;;;21.95;3.35;;;;;;;8.08;100.00;100402.34;4809458;29;20050;-75
2022/11/01 04:06:04;;;;;;;19.48;2.42;;;;;;;8.09;100.00;100401.22;4806747;29;20053;-75
2022/11/01 04:08:30;;;;;;;15.88;2.47;;;;;;;8.07;100.00;100403.44;4797256;29;20041;-75
2022/11/01 04:10:55;;;;;;;12.07;2.10;;;;;;;8.06;100.00;100399.03;4817955;29;20030;-75
2022/11/01 04:13:20;;;;;;;17.02;1.90;;;;;;;8.08;100.00;100405.13;4827976;29;20063;-75
2022/11/01 04:21:15;;;;;;;17.30;2.70;;;;;;;8.04;100.00;100409.53;4827807;29;20090;-75
2022/11/01 04:23:41;;;;;;;12.98;2.00;;;;;;;8.04;100.00;100410.34;4797669;29;20036;-75
2022/11/01 04:26:10;;;;;;;16.23;2.20;;;;;;;8.06;100.00;100401.78;4815636;29;20030;-75
2022/11/01 04:28:35;;;;;;;14.93;2.53;;;;;;;8.05;100.00;100412.03;4816394;29;20626;-75
2022/11/01 04:31:01;;;;;;;14.80;2.22;;;;;;;8.04;100.00;100412.31;4801748;29;20034;-75
2022/11/01 04:33:26;;;;;;;15.18;2.50;;;;;;;8.00;100.00;100417.56;4801463;29;20038;-75
2022/11/01 04:35:52;;;;;;;20.23;2.40;;;;;;;7.98;100.00;100419.78;4813435;29;20050;-75
2022/11/01 04:38:17;;;;;;;16.80;2.00;;;;;;;7.98;100.00;100413.44;4809831;29;20067;-75
2022/11/01 04:40:43;;;;;;;15.45;2.10;;;;;;;7.95;100.00;100425.03;4816418;29;20471;-75
2022/11/01 04:43:09;;;;;;;16.88;2.33;;;;;;;7.97;100.00;100425.59;4814617;29;20073;-75
2022/11/01 04:45:34;;;;;;;17.80;2.00;;;;;;;7.98;100.00;100418.97;4812509;29;20042;-75
2022/11/01 04:48:04;;;;;;;17.13;2.63;;;;;;;7.95;100.00;100428.63;4792902;29;20080;-75
2022/11/01 04:50:30;;;;;;;13.55;2.22;;;;;;;7.98;100.00;100427.25;4810194;29;20045;-75
2022/11/01 04:52:57;;;;;;;15.63;2.70;;;;;;;7.97;100.00;100423.66;4784837;29;20105;-75
2022/11/01 04:55:22;;;;;;;18.35;2.53;;;;;;;7.96;100.00;100423.94;4830884;29;20041;-75
2022/11/01 04:57:48;;;;;;;21.55;2.47;;;;;;;7.96;100.00;100416.44;4793475;29;20041;-75
2022/11/01 05:00:13;;;;;;;16.85;1.80;;;;;;;7.96;100.00;100429.47;4815945;29;20140;-75
2022/11/01 05:02:39;;;;;;;18.23;2.88;;;;;;;7.96;100.00;100427.50;4815649;29;20598;-75
2022/11/01 05:05:05;;;;;;;19.20;2.85;;;;;;;7.93;100.00;100424.50;4797972;29;20113;-75
2022/11/01 05:07:31;;;;;;;11.07;2.08;;;;;;;7.93;100.00;100424.50;4790550;29;20058;-75
2022/11/01 05:09:56;;;;;;;16.52;2.97;;;;;;;7.92;100.00;100426.44;4807387;29;20030;-75
2022/11/01 05:12:22;;;;;;;11.65;1.90;;;;;;;7.94;100.00;100426.13;4814784;29;20117;-75
2022/11/01 05:14:47;;;;;;;14.90;2.30;;;;;;;7.92;100.00;100418.13;4815508;29;20030;-75
2022/11/01 05:17:13;;;;;;;22.50;2.78;;;;;;;7.93;100.00;100425.31;4815144;29;20056;-76
2022/11/01 05:19:38;;;;;;;15.07;2.17;;;;;;;7.96;100.00;100435.00;4815370;29;20045;-75
2022/11/01 05:22:04;;;;;;;21.55;2.60;;;;;;;7.92;100.00;100433.91;4815468;29;20399;-75
2022/11/01 05:24:29;;;;;;;16.15;2.78;;;;;;;7.93;100.00;100430.84;4830463;29;20046;-75
2022/11/01 05:26:55;;;;;;;19.42;2.45;;;;;;;7.94;100.00;100428.91;4800516;29;20026;-75
2022/11/01 05:29:20;;;;;;;9.55;1.85;;;;;;;8.02;100.00;100436.63;4830141;29;20026;-75
2022/11/01 05:31:46;;;;;;;10.93;2.33;;;;;;;7.97;100.00;100431.13;4785567;29;20556;-75
2022/11/01 05:34:11;;;;;;;18.75;2.50;;;;;;;7.99;100.00;100442.72;4812601;29;20027;-75
2022/11/01 05:36:37;;;;;;;16.90;2.45;;;;;;;7.98;100.00;100438.31;4840261;29;20514;-75
2022/11/01 05:39:02;;;;;;;22.38;2.53;;;;;;;7.99;100.00;100439.97;4800385;29;20045;-75
2022/11/01 05:41:28;;;;;;;13.35;1.85;;;;;;;7.97;100.00;100431.97;4830056;29;20041;-75
2022/11/01 05:43:54;;;;;;;17.45;2.15;;;;;;;8.01;100.00;100432.22;4795580;29;20043;-75
2022/11/01 05:46:19;;;;;;;21.33;3.28;;;;;;;7.99;100.00;100435.25;4798912;29;20042;-75
2022/11/01 05:48:45;;;;;;;20.20;2.58;;;;;;;8.00;100.00;100436.09;4792595;29;20476;-75
2022/11/01 05:51:10;;;;;;;22.23;2.65;;;;;;;7.97;100.00;100431.13;4816090;29;20487;-75
2022/11/01 05:53:35;;;;;;;16.48;2.28;;;;;;;7.95;100.00;100431.41;4815100;29;20026;-75
2022/11/01 05:56:01;;;;;;;20.38;2.63;;;;;;;7.96;100.00;100433.03;4814895;29;20114;-75
2022/11/01 05:58:26;;;;;;;22.70;2.63;;;;;;;7.97;100.00;100428.38;4830250;29;20044;-74
2022/11/01 06:00:59;;;;;;;16.58;2.42;;;;;;;7.96;100.00;100435.00;4815240;29;20034;-75
2022/11/01 06:03:25;;;;;;;16.73;2.00;;;;;;;7.97;100.00;100425.59;4799515;29;20081;-75
2022/11/01 06:05:50;;;;;;;15.23;2.05;;;;;;;7.97;100.00;100426.44;4814830;29;20069;-75
2022/11/01 06:08:15;;;;;;;18.50;2.72;;;;;;;7.98;100.00;100430.00;4784912;29;20082;-75
2022/11/01 06:10:41;;;;;;;18.77;2.25;;;;;;;7.98;100.00;100430.00;4829785;29;20034;-75
2022/11/01 06:13:07;;;;;;;17.63;2.30;;;;;;;7.95;100.00;100439.69;4814438;29;20501;-75
2022/11/01 06:15:33;;;;;;;16.55;2.40;;;;;;;7.98;100.00;100430.00;4814818;29;20037;-75
2022/11/01 06:17:59;;;;;;;17.00;2.35;;;;;;;8.00;100.00;100430.56;4812076;29;20514;-75
2022/11/01 06:20:29;;;;;;;15.40;2.70;;;;;;;7.97;100.00;100431.13;4819254;29;20030;-75
2022/11/01 06:22:55;;;;;;;25.77;2.58;;;;;;;7.96;100.00;100427.50;4813887;29;20041;-75
2022/11/01 06:25:21;;;;;;;20.33;2.60;;;;;;;7.97;100.00;100431.13;4814524;29;20045;-75
2022/11/01 06:27:46;;;;;;;17.73;2.30;;;;;;;8.03;100.00;100430.00;4799566;29;20395;-75
2022/11/01 06:30:12;;;;;;;18.63;2.45;;;;;;;8.02;100.00;100426.44;4801982;29;20455;-75
2022/11/01 06:32:37;;;;;;;17.77;2.88;;;;;;;8.01;100.00;100426.69;4828971;29;20049;-75
2022/11/01 06:35:03;;;;;;;24.15;2.25;;;;;;;8.01;100.00;100438.56;4798543;29;20420;-76
2022/11/01 06:37:29;;;;;;;22.40;2.45;;;;;;;8.04;100.00;100429.72;4796541;29;20034;-75
2022/11/01 06:39:54;;;;;;;21.52;2.33;;;;;;;8.01;100.00;100432.22;4814191;29;20041;-75
2022/11/01 06:42:20;;;;;;;18.42;2.65;;;;;;;8.01;100.00;100435.81;4784114;29;20037;-75
2022/11/01 06:44:46;;;;;;;16.45;2.50;;;;;;;8.02;100.00;100433.88;4796299;29;20034;-75
2022/11/01 06:47:11;;;;;;;16.98;2.22;;;;;;;8.03;100.00;100435.53;4813302;29;20046;-75
2022/11/01 06:49:37;;;;;;;20.50;2.28;;;;;;;8.07;100.00;100436.63;4792734;29;20029;-75
2022/11/01 06:52:03;;;;;;;11.57;1.95;;;;;;;8.08;100.00;100438.31;4848489;29;20488;-75
2022/11/01 06:54:29;;;;;;;20.83;2.85;;;;;;;8.04;100.00;100432.47;4798934;29;20423;-75
2022/11/01 06:56:55;;;;;;;24.30;2.88;;;;;;;8.05;100.00;100436.06;4783908;29;20030;-75
2022/11/01 06:59:20;;;;;;;19.77;2.63;;;;;;;8.06;100.00;100432.22;4845363;29;20035;-75
2022/11/01 07:01:46;;;;;;;18.83;2.10;;;;;;;8.08;100.00;100427.25;4808593;29;20038;-75
2022/11/01 07:04:11;;;;;;;27.75;3.20;;;;;;;8.09;100.00;100434.41;4828805;29;20038;-75
2022/11/01 07:06:37;;;;;;;20.92;2.40;;;;;;;8.10;100.00;100440.78;4829186;29;20041;-75
2022/11/01 07:09:03;;;;;;;21.48;2.97;;;;;;;8.11;100.00;100448.81;4826058;29;20034;-75
2022/11/01 07:11:28;;;;;;;15.70;2.78;;;;;;;8.16;100.00;100445.19;4795312;29;20031;-75
2022/11/01 07:13:54;;;;;;;19.63;2.50;;;;;;;8.16;100.00;100457.09;4790380;29;20041;-75
2022/11/01 07:16:19;;;;;;;18.55;2.17;;;;;;;8.19;100.00;100453.78;4796977;29;20042;-75
2022/11/01 07:18:45;;;;;;;25.88;2.55;;;;;;;8.22;100.00;100450.44;4795633;29;20045;-75
2022/11/01 07:21:10;;;;;;;21.50;2.58;;;;;;;8.27;100.00;100458.75;4813694;29;20029;-75
2022/11/01 07:23:36;;;;;;;10.32;1.98;;;;;;;8.28;100.00;100456.81;4813543;29;20042;-75
2022/11/01 07:26:01;;;;;;;21.88;2.92;;;;;;;8.29;100.00;100464.81;4798322;29;20063;-75
2022/11/01 07:28:27;;;;;;;20.38;2.30;;;;;;;8.33;100.00;100470.63;4813617;29;20057;-75
2022/11/01 07:30:53;;;;;;;24.77;2.75;;;;;;;8.39;100.00;100477.00;4798225;29;20038;-75
2022/11/01 07:33:19;;;;;;;24.90;2.67;;;;;;;8.41;100.00;100480.31;4795473;29;20037;-75
2022/11/01 07:35:44;;;;;;;24.35;3.00;;;;;;;8.45;100.00;100482.25;4810714;29;20030;-75
2022/11/01 07:38:10;;;;;;;17.05;3.03;;;;;;;8.48;100.00;100476.16;4798584;29;20091;-75
2022/11/01 07:40:36;;;;;;;19.35;3.05;;;;;;;8.54;100.00;100485.25;4797632;29;20034;-74
2022/11/01 07:43:01;;;;;;;23.73;2.53;;;;;;;8.59;100.00;100479.72;4811253;29;20079;-74
2022/11/01 07:45:29;;;;;;;19.98;2.65;;;;;;;8.67;100.00;100484.69;4799671;29;20078;-75
2022/11/01 07:48:00;;;;;;;25.77;3.17;;;;;;;8.75;100.00;100485.19;4780359;29;20062;-75
2022/11/01 07:50:26;;;;;;;20.38;2.45;;;;;;;8.82;100.00;100481.00;4787261;29;20492;-75
2022/11/01 07:53:08;;;;;;;23.52;3.47;;;;;;;8.90;100.00;100493.44;4809953;29;20026;-76
2022/11/01 07:55:34;;;;;;;24.85;2.60;;;;;;;9.02;100.00;100498.66;4810216;29;20074;-75
2022/11/01 07:57:59;;;;;;;18.10;3.03;;;;;;;9.09;100.00;100488.94;4795718;29;20034;-75
2022/11/01 08:00:25;;;;;;;17.42;2.33;;;;;;;9.18;100.00;100491.94;4779996;29;20038;-76
2022/11/01 08:02:50;;;;;;;15.68;3.17;;;;;;;9.29;100.00;100496.31;4779878;29;20083;-75
2022/11/01 08:05:16;;;;;;;21.08;2.92;;;;;;;9.36;100.00;100504.28;4795045;29;20030;-75
2022/11/01 08:07:41;;;;;;;20.63;2.78;;;;;;;9.43;100.00;100507.59;4780354;29;20030;-75
2022/11/01 08:10:09;;;;;;;22.48;2.30;;;;;;;9.52;100.00;100500.31;4793768;29;20032;-75
2022/11/01 08:12:34;;;;;;;17.20;2.47;;;;;;;9.61;100.00;100509.69;4803951;29;20034;-75
2022/11/01 08:15:01;;;;;;;20.55;3.00;;;;;;;9.72;100.00;100510.47;4791832;29;20035;-75
2022/11/01 08:17:28;;;;;;;16.90;2.45;;;;;;;9.81;100.00;100519.00;4801756;29;20037;-76
2022/11/01 08:19:53;;;;;;;25.58;3.80;;;;;;;9.92;100.00;100515.00;4800538;29;20396;-75
2022/11/01 08:22:19;;;;;;;18.75;2.90;;;;;;;10.02;100.00;100514.91;4794997;29;20027;-75
2022/11/01 08:24:44;;;;;;;19.27;2.67;;;;;;;10.11;100.00;100523.44;4794540;29;20034;-75
2022/11/01 08:27:10;;;;;;;20.75;2.47;;;;;;;10.21;100.00;100523.34;4794524;29;20026;-76
2022/11/01 08:29:35;;;;;;;17.88;2.33;;;;;;;10.35;100.00;100522.72;4794710;29;20094;-76
2022/11/01 08:32:01;;;;;;;24.25;3.20;;;;;;;10.45;100.00;100517.91;4794460;29;20034;-75
2022/11/01 08:34:29;;;;;;;22.85;2.90;;;;;;;10.54;100.00;100520.03;4804956;29;20374;-76
2022/11/01 08:36:55;;;;;;;20.60;2.70;;;;;;;10.65;100.00;100513.25;4827601;29;20037;-75
2022/11/01 08:39:21;;;;;;;18.67;2.47;;;;;;;10.78;100.00;100517.25;4810818;29;20085;-75
2022/11/01 08:41:48;;;;;;;21.25;2.35;;;;;;;10.91;100.00;100525.72;4794510;29;20556;-75
2022/11/01 08:44:13;;;;;;;12.55;2.50;;;;;;;11.04;100.00;100517.81;4779128;29;20050;-75
2022/11/01 08:46:41;;;;;;;21.58;2.63;;;;;;;11.13;100.00;100516.84;4780256;29;20039;-75
2022/11/01 08:49:08;;;;;;;19.55;3.08;;;;;;;11.23;100.00;100524.22;4814473;29;20511;-75
2022/11/01 08:51:34;;;;;;;24.48;3.58;;;;;;;11.34;100.00;100531.31;4834197;29;20106;-75
2022/11/01 08:53:59;;;;;;;17.83;2.38;;;;;;;11.47;100.00;100526.13;4797769;29;20029;-75
2022/11/01 08:56:26;;;;;;;24.10;3.00;;;;;;;11.59;100.00;100520.97;4822908;29;20030;-76
2022/11/01 08:58:52;;;;;;;19.27;2.75;;;;;;;11.71;100.00;100515.75;4813053;29;20495;-75
2022/11/01 09:01:18;;;;;;;17.67;2.35;;;;;;;11.85;100.00;100513.88;4794748;29;20082;-75
2022/11/01 09:03:43;;;;;;;23.95;3.17;;;;;;;11.98;100.00;100509.53;4797313;29;20034;-76
2022/11/01 09:06:09;;;;;;;24.50;3.20;;;;;;;12.11;100.00;100502.31;4827880;29;20030;-75
2022/11/01 09:08:34;;;;;;;22.02;3.03;;;;;;;12.23;100.00;100511.03;4827559;29;20063;-75
2022/11/01 09:11:00;;;;;;;31.90;4.07;;;;;;;12.36;100.00;100503.03;4818160;29;20046;-76
2022/11/01 09:13:25;;;;;;;18.23;2.60;;;;;;;12.52;100.00;100502.44;4830767;29;20052;-76
2022/11/01 09:15:51;;;;;;;18.05;2.70;;;;;;;12.66;100.00;100499.66;4830898;29;20440;-76
2022/11/01 09:18:16;;;;;;;18.42;2.88;;;;;;;12.80;100.00;100493.28;4800854;29;20053;-75
2022/11/01 09:20:42;;;;;;;25.33;2.78;;;;;;;12.88;100.00;100482.22;4800637;29;20403;-76
2022/11/01 09:23:07;;;;;;;25.83;3.55;;;;;;;13.01;100.00;100480.56;4800774;29;20033;-76
2022/11/01 09:25:33;;;;;;;22.33;2.55;;;;;;;13.11;100.00;100482.31;4815653;29;20100;-75
2022/11/01 09:27:58;;;;;;;22.83;2.75;;;;;;;13.21;100.00;100495.22;4815804;29;20258;-75
2022/11/01 09:30:24;;;;;;;28.77;3.22;;;;;;;13.29;100.00;100491.69;4800291;29;20487;-75
2022/11/01 09:32:50;;;;;;;25.27;2.78;;;;;;;13.37;100.00;100490.97;4815992;29;20030;-75
2022/11/01 09:35:16;;;;;;;28.10;3.55;;;;;;;13.48;100.00;100495.16;4832328;29;20018;-75
2022/11/01 09:37:42;;;;;;;26.67;3.00;;;;;;;13.59;100.00;100484.59;4815730;29;20049;-76
2022/11/01 09:40:08;;;;;;;28.00;3.13;;;;;;;13.66;100.00;100484.19;4830369;29;20034;-76
2022/11/01 09:42:38;;;;;;;19.10;2.75;;;;;;;13.76;100.00;100504.31;4815079;29;20030;-76
2022/11/01 09:45:25;;;;;;;22.67;3.20;;;;;;;13.87;100.00;100490.91;4830458;29;20073;-76
2022/11/01 09:47:55;;;;;;;25.00;2.80;;;;;;;13.95;100.00;100495.72;4807108;29;20057;-75
2022/11/01 09:50:26;;;;;;;21.13;2.63;;;;;;;13.97;100.00;100490.66;4812022;29;20037;-76
2022/11/01 09:52:51;;;;;;;28.80;3.78;;;;;;;14.03;100.00;100492.19;4800677;29;20053;-75
2022/11/01 09:55:20;;;;;;;20.52;2.70;;;;;;;14.08;100.00;100477.28;4815186;29;20065;-76
2022/11/01 09:57:55;;;;;;;20.27;3.03;;;;;;;14.09;100.00;100476.13;4830444;29;20022;-76
2022/11/01 10:00:20;;;;;;;22.90;2.83;;;;;;;14.09;100.00;100478.91;4801367;29;20048;-76
2022/11/01 10:03:14;;;;;;;24.67;2.78;;;;;;;14.13;100.00;100477.16;4792421;29;20360;-76
2022/11/01 10:06:04;;;;;;;25.33;3.10;;;;;;;14.14;100.00;100477.97;4808021;29;20103;-76
2022/11/01 10:09:04;;;;;;;23.02;2.92;;;;;;;14.18;100.00;100477.00;4846383;29;20391;-76
2022/11/01 10:11:42;;;;;;;19.77;2.75;;;;;;;14.23;100.00;100473.25;4811874;29;20481;-76
2022/11/01 10:14:19;;;;;;;25.63;2.78;;;;;;;14.27;100.00;100477.88;4846624;29;20041;-76
2022/11/01 10:17:06;;;;;;;22.67;3.35;;;;;;;14.33;100.00;100478.56;4811713;29;20101;-76
2022/11/01 10:19:34;;;;;;;25.70;2.97;;;;;;;14.36;100.00;100474.31;4831896;29;20045;-76
2022/11/01 10:22:06;;;;;;;17.60;2.50;;;;;;;14.41;100.00;100486.19;4814420;29;20037;-75
2022/11/01 10:24:47;;;;;;;26.27;3.58;;;;;;;14.47;100.00;100490.47;4784546;29;20276;-76
2022/11/01 10:27:18;;;;;;;29.75;3.33;;;;;;;14.52;100.00;100490.38;4829635;29;20038;-76
2022/11/01 10:29:56;;;;;;;24.85;2.80;;;;;;;14.59;100.00;100497.47;4814788;29;20045;-76
2022/11/01 10:32:38;;;;;;;22.65;3.10;;;;;;;14.64;100.00;100491.75;4829550;29;20057;-77
2022/11/01 10:35:29;;;;;;;20.85;2.95;;;;;;;14.68;100.00;100499.19;4811377;29;20084;-77
2022/11/01 10:38:10;;;;;;;29.05;3.53;;;;;;;14.73;100.00;100503.78;4814291;29;20041;-76
2022/11/01 10:40:47;;;;;;;21.23;3.00;;;;;;;14.75;100.00;100495.91;4814116;29;20061;-77
2022/11/01 10:43:14;;;;;;;18.05;2.72;;;;;;;14.78;100.00;100505.63;4819953;29;20402;-77
2022/11/01 10:45:43;;;;;;;21.20;2.53;;;;;;;14.82;100.00;100499.06;4828744;29;20052;-69
2022/11/01 10:48:14;;;;;;;22.02;2.83;;;;;;;14.83;100.00;100494.31;4842118;29;20125;-75
2022/11/01 10:50:40;;;;;;;25.27;3.65;;;;;;;14.84;100.00;100496.75;4809928;29;20046;-75
2022/11/01 10:53:06;;;;;;;23.55;3.50;;;;;;;14.85;100.00;100498.41;4796839;29;20101;-75
2022/11/01 10:55:47;;;;;;;16.60;2.50;;;;;;;14.84;100.00;100499.53;4845140;29;20030;-75
2022/11/01 10:58:37;;;;;;;15.43;2.45;;;;;;;14.84;100.00;100499.53;4799064;29;20056;-75
2022/11/01 11:01:05;;;;;;;20.90;2.85;;;;;;;14.85;100.00;100503.16;4829002;29;20081;-75
2022/11/01 11:03:30;;;;;;;27.38;3.58;;;;;;;14.84;100.00;100507.13;4795607;29;20053;-75
2022/11/01 11:05:58;;;;;;;25.73;3.28;;;;;;;14.82;100.00;100499.06;4794130;29;20042;-75
2022/11/01 11:08:23;;;;;;;19.35;3.35;;;;;;;14.86;100.00;100499.25;4828006;29;20026;-75
2022/11/01 11:10:49;;;;;;;24.92;2.88;;;;;;;14.87;100.00;100512.88;4813738;29;20045;-75
2022/11/01 11:13:18;;;;;;;28.65;3.38;;;;;;;14.92;100.00;100501.56;4828611;29;20053;-75
2022/11/01 11:15:52;;;;;;;16.45;2.00;;;;;;;14.95;100.00;100509.28;4814106;29;20030;-75
2022/11/01 11:18:24;;;;;;;17.17;2.75;;;;;;;15.02;100.00;100503.25;4809708;29;20030;-75
2022/11/01 11:20:51;;;;;;;20.80;2.58;;;;;;;15.07;100.00;100493.88;4813426;29;20045;-75
2022/11/01 11:23:18;;;;;;;18.08;2.25;;;;;;;15.11;100.00;100492.91;4828423;29;20046;-75
2022/11/01 11:25:44;;;;;;;18.25;2.83;;;;;;;15.16;100.00;100501.16;4813080;29;20026;-75
2022/11/01 11:28:19;;;;;;;27.30;2.95;;;;;;;15.22;100.00;100501.81;4817356;29;20041;-75